createdAt,value
2023-01-19T00:01:07.148Z,96121.34
2023-01-19T00:03:42.307Z,96119.01
2023-01-19T00:10:24.507Z,96106.19
2023-01-19T00:13:06.737Z,96109.88
2023-01-19T00:16:01.643Z,96106.07
2023-01-19T00:18:39.232Z,96117.78
2023-01-19T00:21:10.945Z,96115.66
2023-01-19T00:23:54.700Z,96124.56
2023-01-19T00:26:27.970Z,96114.52
2023-01-19T00:28:56.721Z,96128.80
2023-01-19T00:31:25.151Z,96135.03
2023-01-19T00:33:53.193Z,96112.08
2023-01-19T00:36:21.193Z,96123.34
2023-01-19T00:38:49.106Z,96116.66
2023-01-19T00:41:28.822Z,96108.84
2023-01-19T00:43:58.536Z,96107.51
2023-01-19T00:46:27.707Z,96112.86
2023-01-19T00:49:00.877Z,96106.17
2023-01-19T00:51:32.654Z,96118.20
2023-01-19T00:54:02.490Z,96133.38
2023-01-19T00:56:31.865Z,96131.13
2023-01-19T00:59:00.171Z,96114.31
2023-01-19T01:01:45.173Z,96103.05
2023-01-19T01:04:23.570Z,96087.25
2023-01-19T01:07:05.346Z,96084.58
2023-01-19T01:09:45.753Z,96093.02
2023-01-19T01:12:30.040Z,96088.23
2023-01-19T01:15:08.362Z,96081.90
2023-01-19T01:17:52.132Z,96077.22
2023-01-19T01:20:26.600Z,96075.77
2023-01-19T01:22:56.061Z,96077.98
2023-01-19T01:25:27.108Z,96061.83
2023-01-19T01:27:55.193Z,96063.05
2023-01-19T01:30:23.895Z,96050.12
2023-01-19T01:32:52.032Z,96054.03
2023-01-19T01:35:20.204Z,96057.70
2023-01-19T01:37:48.332Z,96064.49
2023-01-19T01:40:18.932Z,96059.81
2023-01-19T01:42:47.168Z,96058.02
2023-01-19T01:45:40.008Z,96052.23
2023-01-19T01:48:22.814Z,96050.66
2023-01-19T01:51:26.191Z,96044.10
2023-01-19T01:54:06.722Z,96038.51
2023-01-19T01:56:43.090Z,96040.75
2023-01-19T01:59:25.460Z,96038.08
2023-01-19T02:02:14.834Z,96030.63
2023-01-19T02:05:01.417Z,96032.73
2023-01-19T02:08:22.788Z,96036.74
2023-01-19T02:11:14.326Z,96028.17
2023-01-19T02:13:47.571Z,96022.05
2023-01-19T02:16:17.973Z,96025.50
2023-01-19T02:18:46.658Z,96028.84
2023-01-19T02:21:31.895Z,96031.17
2023-01-19T02:24:02.648Z,96028.39
2023-01-19T02:26:38.146Z,96024.71
2023-01-19T02:29:16.655Z,96027.50
2023-01-19T02:31:45.804Z,96018.04
2023-01-19T02:34:20.206Z,96015.83
2023-01-19T02:37:00.540Z,96013.16
2023-01-19T02:39:38.681Z,96013.16
2023-01-19T02:42:15.051Z,96007.13
2023-01-19T02:44:48.134Z,96022.71
2023-01-19T02:47:16.566Z,96015.36
2023-01-19T02:49:44.661Z,96016.02
2023-01-19T02:52:18.137Z,96018.83
2023-01-19T02:55:06.781Z,96015.48
2023-01-19T02:57:43.426Z,96016.91
2023-01-19T03:00:32.219Z,96017.02
2023-01-19T03:03:21.974Z,96007.23
2023-01-19T03:06:06.046Z,96009.45
2023-01-19T03:09:05.824Z,96013.34
2023-01-19T03:11:38.780Z,96005.88
2023-01-19T03:14:11.865Z,96013.69
2023-01-19T03:16:53.033Z,96018.47
2023-01-19T03:19:37.830Z,96021.14
2023-01-19T03:22:14.241Z,96019.80
2023-01-19T03:24:54.921Z,96017.69
2023-01-19T03:27:32.322Z,96010.67
2023-01-19T03:30:13.031Z,96016.47
2023-01-19T03:32:53.697Z,96011.34
2023-01-19T03:35:26.424Z,96025.72
2023-01-19T03:37:57.739Z,96025.59
2023-01-19T03:40:29.546Z,96033.30
2023-01-19T03:43:00.135Z,96029.96
2023-01-19T03:45:30.480Z,96028.28
2023-01-19T03:48:00.196Z,96039.96
2023-01-19T03:50:30.516Z,96031.06
2023-01-19T03:53:12.137Z,96029.63
2023-01-19T03:55:43.396Z,96030.62
2023-01-19T03:58:11.765Z,96028.19
2023-01-19T04:00:55.676Z,96019.61
2023-01-19T04:03:53.663Z,96023.63
2023-01-19T04:06:41.815Z,96029.53
2023-01-19T04:09:35.252Z,96040.65
2023-01-19T04:15:19.951Z,96052.02
2023-01-19T04:17:47.972Z,96047.66
2023-01-19T04:20:16.402Z,96049.80
2023-01-19T04:22:44.415Z,96041.44
2023-01-19T04:25:12.510Z,96040.66
2023-01-19T04:27:40.502Z,96043.77
2023-01-19T04:30:10.054Z,96042.88
2023-01-19T04:32:38.310Z,96047.89
2023-01-19T04:35:06.841Z,96054.25
2023-01-19T04:37:35.176Z,96053.91
2023-01-19T04:40:08.146Z,96051.13
2023-01-19T04:42:36.116Z,96053.80
2023-01-19T04:45:04.804Z,96051.03
2023-01-19T04:47:33.055Z,96056.59
2023-01-19T04:50:05.228Z,96058.92
2023-01-19T04:52:38.648Z,96065.39
2023-01-19T04:55:11.780Z,96058.92
2023-01-19T04:57:39.971Z,96057.83
2023-01-19T05:00:09.822Z,96055.15
2023-01-19T05:02:38.192Z,96057.83
2023-01-19T05:05:07.278Z,96058.81
2023-01-19T05:07:35.513Z,96048.12
2023-01-19T05:10:04.631Z,96058.81
2023-01-19T05:12:35.508Z,96059.27
2023-01-19T05:15:07.208Z,96063.84
2023-01-19T05:17:42.142Z,96069.97
2023-01-19T05:20:16.468Z,96068.28
2023-01-19T05:22:53.003Z,96067.19
2023-01-19T05:25:21.254Z,96065.61
2023-01-19T05:27:49.174Z,96068.53
2023-01-19T05:30:17.815Z,96077.54
2023-01-19T05:32:48.679Z,96078.31
2023-01-19T05:35:20.115Z,96073.18
2023-01-19T05:37:46.733Z,96075.86
2023-01-19T05:40:14.596Z,96081.77
2023-01-19T05:42:42.506Z,96081.77
2023-01-19T05:45:12.014Z,96080.43
2023-01-19T05:47:40.151Z,96081.55
2023-01-19T05:50:08.955Z,96085.00
2023-01-19T05:52:37.082Z,96083.66
2023-01-19T05:55:06.021Z,96086.91
2023-01-19T05:57:34.477Z,96095.70
2023-01-19T06:00:04.522Z,96101.61
2023-01-19T06:02:35.240Z,96114.64
2023-01-19T06:05:04.579Z,96114.11
2023-01-19T06:07:34.527Z,96104.95
2023-01-19T06:10:02.965Z,96106.52
2023-01-19T06:12:31.945Z,96103.63
2023-01-19T06:14:59.993Z,96104.61
2023-01-19T06:17:28.231Z,96115.77
2023-01-19T06:19:57.424Z,96118.00
2023-01-19T06:22:25.541Z,96109.62
2023-01-19T06:24:54.616Z,96114.97
2023-01-19T06:27:23.265Z,96117.12
2023-01-19T06:29:51.351Z,96110.08
2023-01-19T06:32:20.101Z,96108.40
2023-01-19T06:34:49.124Z,96113.64
2023-01-19T06:37:17.194Z,96111.75
2023-01-19T06:39:45.008Z,96113.55
2023-01-19T06:42:12.659Z,96101.29
2023-01-19T06:44:42.458Z,96097.84
2023-01-19T06:47:15.382Z,96088.47
2023-01-19T06:49:41.976Z,96084.22
2023-01-19T06:52:11.788Z,96080.20
2023-01-19T06:54:39.627Z,96080.45
2023-01-19T06:57:09.991Z,96076.44
2023-01-19T06:59:38.422Z,96080.88
2023-01-19T07:02:26.714Z,96083.23
2023-01-19T07:04:36.284Z,96091.13
2023-01-19T07:07:04.293Z,96095.03
2023-01-19T07:09:32.113Z,96101.62
2023-01-19T07:11:59.935Z,96100.70
2023-01-19T07:14:29.648Z,96096.48
2023-01-19T07:16:57.287Z,96106.16
2023-01-19T07:19:25.109Z,96096.91
2023-01-19T07:21:52.781Z,96091.87
2023-01-19T07:24:21.298Z,96093.98
2023-01-19T07:26:50.056Z,96091.86
2023-01-19T07:29:17.810Z,96097.75
2023-01-19T07:31:48.075Z,96103.34
2023-01-19T07:34:16.008Z,96105.55
2023-01-19T07:36:43.722Z,96104.08
2023-01-19T07:39:11.572Z,96098.96
2023-01-19T07:41:39.541Z,96109.11
2023-01-19T07:44:08.326Z,96094.80
2023-01-19T07:46:36.271Z,96084.55
2023-01-19T07:49:04.271Z,96077.17
2023-01-19T07:51:32.065Z,96080.16
2023-01-19T07:53:59.639Z,96079.38
2023-01-19T07:56:30.780Z,96078.34
2023-01-19T07:58:59.474Z,96081.20
2023-01-19T08:01:27.476Z,96081.19
2023-01-19T08:03:55.387Z,96075.81
2023-01-19T08:06:35.251Z,96083.27
2023-01-19T08:09:05.176Z,96082.44
2023-01-19T08:11:33.808Z,96084.91
2023-01-19T08:14:01.994Z,96093.94
2023-01-19T08:16:29.861Z,96111.25
2023-01-19T08:18:57.633Z,96118.16
2023-01-19T08:21:25.491Z,96110.33
2023-01-19T08:23:57.887Z,96127.42
2023-01-19T08:26:33.316Z,96123.16
2023-01-19T08:29:05.260Z,96110.42
2023-01-19T08:31:33.372Z,96112.33
2023-01-19T08:34:01.271Z,96114.68
2023-01-19T08:36:30.056Z,96115.45
2023-01-19T08:38:57.806Z,96122.36
2023-01-19T08:41:25.660Z,96118.91
2023-01-19T08:43:55.159Z,96116.23
2023-01-19T08:46:22.846Z,96134.88
2023-01-19T08:48:50.658Z,96123.34
2023-01-19T08:51:19.291Z,96134.31
2023-01-19T08:53:47.254Z,96128.39
2023-01-19T08:56:15.039Z,96118.64
2023-01-19T08:58:53.624Z,96122.55
2023-01-19T09:01:18.165Z,96132.03
2023-01-19T09:03:46.475Z,96135.01
2023-01-19T09:06:19.310Z,96127.50
2023-01-19T09:08:47.687Z,96136.63
2023-01-19T09:11:17.029Z,96137.52
2023-01-19T09:13:44.911Z,96142.20
2023-01-19T09:16:14.454Z,96136.92
2023-01-19T09:18:42.569Z,96138.77
2023-01-19T09:21:10.479Z,96129.25
2023-01-19T09:23:38.316Z,96133.78
2023-01-19T09:26:06.635Z,96130.41
2023-01-19T09:28:34.749Z,96116.95
2023-01-19T09:31:09.167Z,96109.20
2023-01-19T09:33:37.191Z,96106.59
2023-01-19T09:36:05.189Z,96106.34
2023-01-19T09:38:33.651Z,96108.18
2023-01-19T09:41:01.600Z,96123.68
2023-01-19T09:43:54.770Z,96116.59
2023-01-19T09:46:36.465Z,96108.61
2023-01-19T09:49:21.253Z,96108.09
2023-01-19T09:51:50.465Z,96100.03
2023-01-19T09:54:35.981Z,96088.23
2023-01-19T09:57:10.792Z,96090.82
2023-01-19T09:59:38.590Z,96088.11
2023-01-19T10:02:30.061Z,96095.69
2023-01-19T10:05:06.428Z,96104.75
2023-01-19T10:07:47.609Z,96091.20
2023-01-19T10:10:22.648Z,96088.86
2023-01-19T10:13:27.515Z,96092.73
2023-01-19T10:16:34.203Z,96093.45
2023-01-19T10:19:35.481Z,96102.45
2023-01-19T10:22:25.799Z,96090.03
2023-01-19T10:25:05.313Z,96081.41
2023-01-19T10:27:37.096Z,96070.24
2023-01-19T10:30:09.725Z,96075.15
2023-01-19T10:32:39.354Z,96073.52
2023-01-19T10:35:19.010Z,96082.84
2023-01-19T10:37:47.119Z,96072.27
2023-01-19T10:40:37.442Z,96076.95
2023-01-19T10:43:44.622Z,96084.13
2023-01-19T10:46:24.067Z,96074.11
2023-01-19T10:48:54.332Z,96083.59
2023-01-19T10:51:22.989Z,96073.92
2023-01-19T10:54:03.163Z,96078.58
2023-01-19T10:56:34.825Z,96080.94
2023-01-19T10:59:06.258Z,96086.38
2023-01-19T11:01:36.292Z,96082.94
2023-01-19T11:04:29.403Z,96083.71
2023-01-19T11:07:05.393Z,96087.02
2023-01-19T11:09:34.849Z,96080.25
2023-01-19T11:12:02.787Z,96088.95
2023-01-19T11:14:31.597Z,96078.13
2023-01-19T11:16:59.349Z,96089.89
2023-01-19T11:19:32.760Z,96083.71
2023-01-19T11:22:21.618Z,96082.34
2023-01-19T11:24:50.224Z,96081.75
2023-01-19T11:27:21.603Z,96085.02
2023-01-19T11:30:01.378Z,96081.13
2023-01-19T11:32:29.900Z,96081.52
2023-01-19T11:34:59.817Z,96086.33
2023-01-19T11:37:34.141Z,96082.09
2023-01-19T11:40:06.614Z,96086.89
2023-01-19T11:42:36.719Z,96094.02
2023-01-19T11:45:12.900Z,96092.06
2023-01-19T11:47:48.925Z,96091.69
2023-01-19T11:50:31.352Z,96092.63
2023-01-19T11:53:24.561Z,96090.67
2023-01-19T11:56:15.028Z,96092.00
2023-01-19T11:58:46.911Z,96099.13
2023-01-19T12:01:29.241Z,96099.47
2023-01-19T12:04:16.589Z,96107.19
2023-01-19T12:06:55.466Z,96114.50
2023-01-19T12:09:30.809Z,96097.11
2023-01-19T12:12:24.433Z,96104.41
2023-01-19T12:15:03.763Z,96100.91
2023-01-19T12:17:45.605Z,96103.59
2023-01-19T12:20:30.663Z,96097.61
2023-01-19T12:23:04.168Z,96095.48
2023-01-19T12:26:08.639Z,96101.05
2023-01-19T12:28:43.327Z,96099.70
2023-01-19T12:31:18.961Z,96092.20
2023-01-19T12:33:47.669Z,96089.91
2023-01-19T12:36:37.404Z,96092.52
2023-01-19T12:39:19.786Z,96101.27
2023-01-19T12:42:04.356Z,96105.37
2023-01-19T12:44:33.703Z,96098.84
2023-01-19T12:47:13.246Z,96099.87
2023-01-19T12:49:55.603Z,96111.30
2023-01-19T12:52:35.908Z,96111.52
2023-01-19T12:55:24.200Z,96098.91
2023-01-19T12:58:12.058Z,96119.64
2023-01-19T13:00:43.885Z,96129.11
2023-01-19T13:03:29.302Z,96129.86
2023-01-19T13:05:57.582Z,96128.87
2023-01-19T13:08:49.863Z,96141.03
2023-01-19T13:11:19.759Z,96153.95
2023-01-19T13:14:02.388Z,96160.27
2023-01-19T13:16:38.587Z,96194.81
2023-01-19T13:19:20.359Z,96197.86
2023-01-19T13:21:49.174Z,96204.67
2023-01-19T13:24:23.071Z,96215.88
2023-01-19T13:26:55.155Z,96228.98
2023-01-19T13:29:41.598Z,96242.69
2023-01-19T13:32:21.410Z,96241.91
2023-01-19T13:34:57.029Z,96239.00
2023-01-19T13:37:33.296Z,96240.74
2023-01-19T13:40:02.849Z,96234.41
2023-01-19T13:42:41.239Z,96243.30
2023-01-19T13:45:30.385Z,96252.98
2023-01-19T13:48:02.669Z,96250.91
2023-01-19T13:50:34.287Z,96257.05
2023-01-19T13:53:04.072Z,96271.87
2023-01-19T13:55:31.850Z,96277.08
2023-01-19T13:57:59.437Z,96269.22
2023-01-19T14:00:30.387Z,96280.69
2023-01-19T14:03:06.568Z,96287.84
2023-01-19T14:05:38.058Z,96290.00
2023-01-19T14:08:14.429Z,96301.55
2023-01-19T14:11:01.075Z,96311.62
2023-01-19T14:13:33.127Z,96312.42
2023-01-19T14:16:05.217Z,96329.14
2023-01-19T14:18:36.376Z,96331.25
2023-01-19T14:21:11.694Z,96336.91
2023-01-19T14:23:57.401Z,96346.23
2023-01-19T14:26:46.827Z,96340.73
2023-01-19T14:29:34.253Z,96334.06
2023-01-19T14:32:27.356Z,96343.53
2023-01-19T14:35:03.833Z,96342.30
2023-01-19T14:37:37.337Z,96352.79
2023-01-19T14:40:14.513Z,96344.47
2023-01-19T14:43:00.089Z,96332.98
2023-01-19T14:45:36.154Z,96326.41
2023-01-19T14:48:16.369Z,96327.47
2023-01-19T14:50:57.665Z,96327.16
2023-01-19T14:53:25.390Z,96330.09
2023-01-19T14:56:04.549Z,96331.34
2023-01-19T14:58:40.879Z,96333.52
2023-01-19T15:01:15.804Z,96330.95
2023-01-19T15:03:45.651Z,96325.48
2023-01-19T15:06:17.329Z,96331.75
2023-01-19T15:08:46.273Z,96340.48
2023-01-19T15:11:33.829Z,96340.39
2023-01-19T15:14:02.360Z,96341.22
2023-01-19T15:16:34.683Z,96335.96
2023-01-19T15:19:03.355Z,96333.39
2023-01-19T15:21:31.137Z,96323.12
2023-01-19T15:23:59.907Z,96328.85
2023-01-19T15:26:28.114Z,96333.77
2023-01-19T15:28:57.017Z,96338.15
2023-01-19T15:31:27.182Z,96352.45
2023-01-19T15:33:55.797Z,96352.56
2023-01-19T15:36:26.330Z,96362.88
2023-01-19T15:38:56.188Z,96363.77
2023-01-19T15:41:29.295Z,96373.30
2023-01-19T15:43:57.889Z,96384.71
2023-01-19T15:46:26.631Z,96389.97
2023-01-19T15:48:54.786Z,96385.84
2023-01-19T15:51:25.917Z,96381.48
2023-01-19T15:53:55.134Z,96386.53
2023-01-19T15:56:27.341Z,96392.56
2023-01-19T15:58:56.299Z,96403.75
2023-01-19T16:01:34.763Z,96400.61
2023-01-19T16:04:06.353Z,96430.12
2023-01-19T16:06:34.421Z,96426.45
2023-01-19T16:09:03.922Z,96439.08
2023-01-19T16:11:34.943Z,96445.78
2023-01-19T16:14:03.072Z,96436.61
2023-01-19T16:16:31.010Z,96437.95
2023-01-19T16:18:58.748Z,96423.97
2023-01-19T16:21:26.923Z,96419.95
2023-01-19T16:23:55.315Z,96435.16
2023-01-19T16:26:34.322Z,96444.33
2023-01-19T16:29:09.272Z,96435.83
2023-01-19T16:31:39.459Z,96437.17
2023-01-19T16:34:09.292Z,96433.50
2023-01-19T16:36:40.416Z,96444.12
2023-01-19T16:39:14.189Z,96449.02
2023-01-19T16:41:47.945Z,96459.08
2023-01-19T16:44:17.329Z,96457.06
2023-01-19T16:46:50.479Z,96454.16
2023-01-19T16:49:22.429Z,96463.65
2023-01-19T16:51:52.928Z,96468.69
2023-01-19T16:54:25.950Z,96480.64
2023-01-19T16:57:00.981Z,96490.47
2023-01-19T16:59:31.882Z,96487.97
2023-01-19T17:02:00.250Z,96476.09
2023-01-19T17:04:29.563Z,96461.67
2023-01-19T17:07:03.551Z,96462.00
2023-01-19T17:09:32.042Z,96448.94
2023-01-19T17:12:00.001Z,96430.50
2023-01-19T17:14:29.522Z,96407.81
2023-01-19T17:17:02.798Z,96400.00
2023-01-19T17:19:31.112Z,96389.39
2023-01-19T17:21:59.161Z,96406.55
2023-01-19T17:24:27.335Z,96390.69
2023-01-19T17:27:04.828Z,96400.50
2023-01-19T17:29:35.247Z,96395.02
2023-01-19T17:32:05.478Z,96383.53
2023-01-19T17:34:33.614Z,96433.05
2023-01-19T17:37:02.407Z,96438.09
2023-01-19T17:39:32.058Z,96447.91
2023-01-19T17:42:01.956Z,96469.79
2023-01-19T17:44:30.442Z,96488.19
2023-01-19T17:47:00.013Z,96509.61
2023-01-19T17:49:37.415Z,96506.93
2023-01-19T17:52:05.657Z,96491.42
2023-01-19T17:54:33.802Z,96498.67
2023-01-19T17:57:02.310Z,96484.27
2023-01-19T17:59:32.206Z,96481.59
2023-01-19T18:02:00.539Z,96484.27
2023-01-19T18:04:32.298Z,96474.67
2023-01-19T18:07:00.443Z,96473.21
2023-01-19T18:09:29.926Z,96467.64
2023-01-19T18:11:58.167Z,96450.02
2023-01-19T18:14:26.155Z,96445.31
2023-01-19T18:16:54.365Z,96447.31
2023-01-19T18:19:25.310Z,96464.02
2023-01-19T18:21:53.492Z,96493.33
2023-01-19T18:24:21.384Z,96517.86
2023-01-19T18:26:51.280Z,96522.68
2023-01-19T18:29:20.133Z,96524.80
2023-01-19T18:31:48.178Z,96523.34
2023-01-19T18:34:16.371Z,96512.89
2023-01-19T18:36:47.317Z,96513.33
2023-01-19T18:39:19.597Z,96515.35
2023-01-19T18:41:48.414Z,96522.83
2023-01-19T18:44:18.379Z,96533.31
2023-01-19T18:46:47.462Z,96535.68
2023-01-19T18:49:17.473Z,96525.75
2023-01-19T18:51:45.769Z,96527.09
2023-01-19T18:54:13.855Z,96527.87
2023-01-19T18:56:42.101Z,96520.83
2023-01-19T18:59:11.657Z,96509.81
2023-01-19T19:01:40.451Z,96502.78
2023-01-19T19:04:08.260Z,96485.38
2023-01-19T19:06:36.005Z,96486.94
2023-01-19T19:09:04.739Z,96496.66
2023-01-19T19:11:32.844Z,96507.92
2023-01-19T19:14:02.262Z,96517.84
2023-01-19T19:16:31.674Z,96548.86
2023-01-19T19:19:00.907Z,96561.69
2023-01-19T19:21:28.850Z,96552.09
2023-01-19T19:24:10.117Z,96548.64
2023-01-19T19:26:38.045Z,96562.02
2023-01-19T19:29:06.092Z,96566.91
2023-01-19T19:31:33.955Z,96566.69
2023-01-19T19:34:01.654Z,96561.33
2023-01-19T19:36:29.987Z,96549.71
2023-01-19T19:39:13.530Z,96545.78
2023-01-19T19:41:42.221Z,96537.53
2023-01-19T19:44:14.836Z,96545.31
2023-01-19T19:46:42.914Z,96554.69
2023-01-19T19:49:11.568Z,96556.02
2023-01-19T19:51:41.617Z,96564.17
2023-01-19T19:54:09.413Z,96566.84
2023-01-19T19:56:38.204Z,96570.61
2023-01-19T19:59:07.151Z,96562.14
2023-01-19T20:01:35.156Z,96568.36
2023-01-19T20:04:10.762Z,96556.66
2023-01-19T20:06:44.160Z,96549.27
2023-01-19T20:09:13.804Z,96551.25
2023-01-19T20:11:43.499Z,96550.25
2023-01-19T20:14:12.912Z,96542.62
2023-01-19T20:16:40.766Z,96534.59
2023-01-19T20:19:09.940Z,96524.31
2023-01-19T20:21:41.313Z,96530.78
2023-01-19T20:24:16.704Z,96542.27
2023-01-19T20:26:52.519Z,96552.49
2023-01-19T20:29:20.648Z,96553.61
2023-01-19T20:31:54.971Z,96546.70
2023-01-19T20:34:27.390Z,96554.03
2023-01-19T20:36:56.054Z,96554.11
2023-01-19T20:39:24.696Z,96552.64
2023-01-19T20:41:53.064Z,96549.83
2023-01-19T20:44:24.287Z,96547.41
2023-01-19T20:46:53.986Z,96546.45
2023-01-19T20:49:24.332Z,96549.80
2023-01-19T20:51:53.228Z,96541.08
2023-01-19T20:54:26.767Z,96545.62
2023-01-19T20:56:56.726Z,96544.48
2023-01-19T20:59:24.653Z,96560.30
2023-01-19T21:01:52.911Z,96559.52
2023-01-19T21:04:20.675Z,96564.61
2023-01-19T21:06:48.453Z,96566.51
2023-01-19T21:09:18.281Z,96568.32
2023-01-19T21:11:52.500Z,96569.55
2023-01-19T21:14:21.227Z,96568.77
2023-01-19T21:16:50.167Z,96566.98
2023-01-19T21:19:18.210Z,96560.05
2023-01-19T21:21:46.119Z,96562.72
2023-01-19T21:24:14.162Z,96561.72
2023-01-19T21:26:42.519Z,96568.73
2023-01-19T21:29:33.739Z,96578.09
2023-01-19T21:32:20.920Z,96580.07
2023-01-19T21:34:48.893Z,96581.71
2023-01-19T21:37:16.895Z,96584.39
2023-01-19T21:39:45.037Z,96578.26
2023-01-19T21:42:15.845Z,96577.70
2023-01-19T21:44:43.780Z,96571.02
2023-01-19T21:47:11.724Z,96575.36
2023-01-19T21:49:39.771Z,96568.67
2023-01-19T21:52:11.341Z,96554.61
2023-01-19T21:54:40.587Z,96551.02
2023-01-19T21:57:09.090Z,96571.70
2023-01-19T21:59:37.689Z,96595.76
2023-01-19T22:02:05.710Z,96595.05
2023-01-19T22:04:35.805Z,96591.12
2023-01-19T22:07:03.798Z,96584.44
2023-01-19T22:09:36.249Z,96591.12
2023-01-19T22:12:05.787Z,96587.67
2023-01-19T22:14:37.532Z,96578.65
2023-01-19T22:17:11.123Z,96585.63
2023-01-19T22:19:39.103Z,96592.88
2023-01-19T22:22:09.367Z,96598.77
2023-01-19T22:24:39.185Z,96582.18
2023-01-19T22:27:08.608Z,96564.25
2023-01-19T22:29:36.951Z,96567.48
2023-01-19T22:32:05.779Z,96570.15
2023-01-19T22:34:33.752Z,96574.16
2023-01-19T22:37:02.159Z,96584.63
2023-01-19T22:39:33.829Z,96579.28
2023-01-19T22:42:14.910Z,96569.03
2023-01-19T22:44:58.673Z,96562.91
2023-01-19T22:47:32.363Z,96562.91
2023-01-19T22:50:10.478Z,96547.43
2023-01-19T22:52:38.843Z,96545.39
2023-01-19T22:55:10.098Z,96540.54
2023-01-19T22:57:41.360Z,96538.84
2023-01-19T23:00:12.599Z,96524.55
2023-01-19T23:02:42.850Z,96522.18
2023-01-19T23:05:11.216Z,96527.86
2023-01-19T23:07:41.539Z,96510.05
2023-01-19T23:10:11.701Z,96528.97
2023-01-19T23:12:42.663Z,96523.70
2023-01-19T23:15:11.449Z,96527.16
2023-01-19T23:17:41.242Z,96516.94
2023-01-19T23:20:11.124Z,96512.38
2023-01-19T23:22:45.413Z,96512.05
2023-01-19T23:25:22.114Z,96512.83
2023-01-19T23:27:57.650Z,96488.68
2023-01-19T23:30:30.863Z,96513.94
2023-01-19T23:33:04.960Z,96518.02
2023-01-19T23:35:54.844Z,96516.69
2023-01-19T23:38:22.368Z,96519.92
2023-01-19T23:40:51.972Z,96522.37
2023-01-19T23:43:20.128Z,96531.16
2023-01-19T23:45:49.773Z,96522.92
2023-01-19T23:51:49.068Z,96517.25
2023-01-19T23:54:17.178Z,96521.25
2023-01-19T23:56:45.664Z,96523.63
2023-01-19T23:59:16.091Z,96529.97
